sensor_id;sensor_type;location;lat;lon;timestamp;P1;durP1;ratioP1;P2;durP2;ratioP2
16117;SDS011;8163;50.118;5.342;2023-01-01T00:02:04;1.45;;;1.35;;
16117;SDS011;8163;50.118;5.342;2023-01-01T00:04:32;1.35;;;1.25;;
16117;SDS011;8163;50.118;5.342;2023-01-01T00:07:00;2.38;;;1.30;;
16117;SDS011;8163;50.118;5.342;2023-01-01T00:09:27;3.10;;;1.33;;
16117;SDS011;8163;50.118;5.342;2023-01-01T00:12:12;3.83;;;1.75;;
16117;SDS011;8163;50.118;5.342;2023-01-01T00:14:40;2.85;;;1.17;;
16117;SDS011;8163;50.118;5.342;2023-01-01T00:17:08;1.58;;;1.30;;
16117;SDS011;8163;50.118;5.342;2023-01-01T00:19:35;1.35;;;1.25;;
16117;SDS011;8163;50.118;5.342;2023-01-01T00:22:02;1.42;;;1.02;;
16117;SDS011;8163;50.118;5.342;2023-01-01T00:24:29;2.90;;;1.20;;
16117;SDS011;8163;50.118;5.342;2023-01-01T00:26:56;2.58;;;1.20;;
16117;SDS011;8163;50.118;5.342;2023-01-01T00:29:23;1.77;;;1.25;;
16117;SDS011;8163;50.118;5.342;2023-01-01T00:31:51;1.60;;;1.50;;
16117;SDS011;8163;50.118;5.342;2023-01-01T00:34:18;1.20;;;1.08;;
16117;SDS011;8163;50.118;5.342;2023-01-01T00:36:46;4.45;;;1.42;;
16117;SDS011;8163;50.118;5.342;2023-01-01T00:39:14;1.40;;;1.30;;
16117;SDS011;8163;50.118;5.342;2023-01-01T00:41:43;2.22;;;1.55;;
16117;SDS011;8163;50.118;5.342;2023-01-01T00:44:10;3.20;;;1.30;;
16117;SDS011;8163;50.118;5.342;2023-01-01T00:46:36;1.95;;;1.48;;
16117;SDS011;8163;50.118;5.342;2023-01-01T00:49:05;1.75;;;1.45;;
16117;SDS011;8163;50.118;5.342;2023-01-01T00:51:32;2.38;;;1.33;;
16117;SDS011;8163;50.118;5.342;2023-01-01T00:53:59;5.35;;;1.60;;
16117;SDS011;8163;50.118;5.342;2023-01-01T00:56:26;1.48;;;1.02;;
16117;SDS011;8163;50.118;5.342;2023-01-01T00:58:53;3.53;;;1.40;;
16117;SDS011;8163;50.118;5.342;2023-01-01T01:01:20;2.85;;;1.45;;
16117;SDS011;8163;50.118;5.342;2023-01-01T01:03:47;1.27;;;1.20;;
16117;SDS011;8163;50.118;5.342;2023-01-01T01:06:15;5.95;;;1.60;;
16117;SDS011;8163;50.118;5.342;2023-01-01T01:08:44;3.00;;;1.40;;
16117;SDS011;8163;50.118;5.342;2023-01-01T01:11:13;1.27;;;1.15;;
16117;SDS011;8163;50.118;5.342;2023-01-01T01:13:41;5.22;;;1.30;;
16117;SDS011;8163;50.118;5.342;2023-01-01T01:16:10;2.17;;;1.48;;
16117;SDS011;8163;50.118;5.342;2023-01-01T01:18:40;2.30;;;1.50;;
16117;SDS011;8163;50.118;5.342;2023-01-01T01:21:08;2.50;;;1.20;;
16117;SDS011;8163;50.118;5.342;2023-01-01T01:23:37;2.10;;;1.13;;
16117;SDS011;8163;50.118;5.342;2023-01-01T01:26:08;3.88;;;1.85;;
16117;SDS011;8163;50.118;5.342;2023-01-01T01:28:36;2.70;;;1.67;;
16117;SDS011;8163;50.118;5.342;2023-01-01T01:31:04;3.72;;;1.60;;
16117;SDS011;8163;50.118;5.342;2023-01-01T01:33:31;3.55;;;1.40;;
16117;SDS011;8163;50.118;5.342;2023-01-01T01:35:58;1.90;;;1.40;;
16117;SDS011;8163;50.118;5.342;2023-01-01T01:38:25;2.55;;;1.90;;
16117;SDS011;8163;50.118;5.342;2023-01-01T01:40:54;1.38;;;1.27;;
16117;SDS011;8163;50.118;5.342;2023-01-01T01:43:23;1.70;;;1.60;;
16117;SDS011;8163;50.118;5.342;2023-01-01T01:46:11;2.83;;;1.27;;
16117;SDS011;8163;50.118;5.342;2023-01-01T01:48:41;1.80;;;1.48;;
16117;SDS011;8163;50.118;5.342;2023-01-01T01:51:10;3.25;;;1.60;;
16117;SDS011;8163;50.118;5.342;2023-01-01T01:53:40;2.65;;;1.33;;
16117;SDS011;8163;50.118;5.342;2023-01-01T01:56:13;2.33;;;1.60;;
16117;SDS011;8163;50.118;5.342;2023-01-01T01:58:45;3.83;;;1.42;;
16117;SDS011;8163;50.118;5.342;2023-01-01T02:01:12;1.83;;;1.60;;
16117;SDS011;8163;50.118;5.342;2023-01-01T02:03:41;3.97;;;1.58;;
16117;SDS011;8163;50.118;5.342;2023-01-01T02:06:14;8.85;;;1.90;;
16117;SDS011;8163;50.118;5.342;2023-01-01T02:08:41;4.55;;;1.55;;
16117;SDS011;8163;50.118;5.342;2023-01-01T02:11:08;1.42;;;1.23;;
16117;SDS011;8163;50.118;5.342;2023-01-01T02:13:36;1.50;;;1.40;;
16117;SDS011;8163;50.118;5.342;2023-01-01T02:16:05;3.78;;;1.77;;
16117;SDS011;8163;50.118;5.342;2023-01-01T02:18:37;7.95;;;1.88;;
16117;SDS011;8163;50.118;5.342;2023-01-01T02:21:13;1.52;;;1.42;;
16117;SDS011;8163;50.118;5.342;2023-01-01T02:23:58;3.22;;;1.40;;
16117;SDS011;8163;50.118;5.342;2023-01-01T02:26:39;2.33;;;1.60;;
16117;SDS011;8163;50.118;5.342;2023-01-01T02:29:16;2.90;;;1.50;;
16117;SDS011;8163;50.118;5.342;2023-01-01T02:31:55;5.28;;;2.10;;
16117;SDS011;8163;50.118;5.342;2023-01-01T02:34:26;4.35;;;2.10;;
16117;SDS011;8163;50.118;5.342;2023-01-01T02:36:58;5.68;;;1.63;;
16117;SDS011;8163;50.118;5.342;2023-01-01T02:39:30;1.98;;;1.52;;
16117;SDS011;8163;50.118;5.342;2023-01-01T02:42:00;3.05;;;1.90;;
16117;SDS011;8163;50.118;5.342;2023-01-01T02:44:33;2.05;;;1.50;;
16117;SDS011;8163;50.118;5.342;2023-01-01T02:47:05;3.47;;;1.48;;
16117;SDS011;8163;50.118;5.342;2023-01-01T02:49:35;1.80;;;1.48;;
16117;SDS011;8163;50.118;5.342;2023-01-01T02:52:08;3.40;;;1.65;;
16117;SDS011;8163;50.118;5.342;2023-01-01T02:54:43;4.88;;;2.03;;
16117;SDS011;8163;50.118;5.342;2023-01-01T02:57:20;3.42;;;2.50;;
16117;SDS011;8163;50.118;5.342;2023-01-01T02:59:55;6.25;;;3.15;;
16117;SDS011;8163;50.118;5.342;2023-01-01T03:03:00;5.05;;;2.15;;
16117;SDS011;8163;50.118;5.342;2023-01-01T03:05:42;3.33;;;1.73;;
16117;SDS011;8163;50.118;5.342;2023-01-01T03:08:35;3.38;;;1.70;;
16117;SDS011;8163;50.118;5.342;2023-01-01T03:11:09;3.28;;;1.67;;
16117;SDS011;8163;50.118;5.342;2023-01-01T03:13:41;3.85;;;1.50;;
16117;SDS011;8163;50.118;5.342;2023-01-01T03:16:15;4.75;;;1.83;;
16117;SDS011;8163;50.118;5.342;2023-01-01T03:18:46;4.05;;;1.35;;
16117;SDS011;8163;50.118;5.342;2023-01-01T03:21:36;6.38;;;2.08;;
16117;SDS011;8163;50.118;5.342;2023-01-01T03:24:06;1.98;;;1.50;;
16117;SDS011;8163;50.118;5.342;2023-01-01T03:26:39;2.95;;;1.90;;
16117;SDS011;8163;50.118;5.342;2023-01-01T03:29:08;5.15;;;2.03;;
16117;SDS011;8163;50.118;5.342;2023-01-01T03:31:38;2.88;;;1.90;;
16117;SDS011;8163;50.118;5.342;2023-01-01T03:34:10;3.10;;;1.58;;
16117;SDS011;8163;50.118;5.342;2023-01-01T03:36:42;2.55;;;1.70;;
16117;SDS011;8163;50.118;5.342;2023-01-01T03:39:13;11.23;;;2.10;;
16117;SDS011;8163;50.118;5.342;2023-01-01T03:41:45;2.47;;;1.58;;
16117;SDS011;8163;50.118;5.342;2023-01-01T03:44:20;4.75;;;1.83;;
16117;SDS011;8163;50.118;5.342;2023-01-01T03:46:53;5.40;;;3.00;;
16117;SDS011;8163;50.118;5.342;2023-01-01T03:49:20;2.42;;;1.88;;
16117;SDS011;8163;50.118;5.342;2023-01-01T03:52:10;3.88;;;1.65;;
16117;SDS011;8163;50.118;5.342;2023-01-01T03:54:48;4.47;;;2.13;;
16117;SDS011;8163;50.118;5.342;2023-01-01T03:57:20;11.57;;;1.88;;
16117;SDS011;8163;50.118;5.342;2023-01-01T03:59:56;3.70;;;1.70;;
16117;SDS011;8163;50.118;5.342;2023-01-01T04:02:32;5.70;;;1.63;;
16117;SDS011;8163;50.118;5.342;2023-01-01T04:05:03;5.20;;;1.80;;
16117;SDS011;8163;50.118;5.342;2023-01-01T04:07:31;4.32;;;1.80;;
16117;SDS011;8163;50.118;5.342;2023-01-01T04:10:00;3.10;;;1.80;;
16117;SDS011;8163;50.118;5.342;2023-01-01T04:12:41;3.72;;;1.80;;
16117;SDS011;8163;50.118;5.342;2023-01-01T04:15:13;6.15;;;2.25;;
16117;SDS011;8163;50.118;5.342;2023-01-01T04:17:41;5.43;;;1.70;;
16117;SDS011;8163;50.118;5.342;2023-01-01T04:20:09;3.15;;;1.98;;
16117;SDS011;8163;50.118;5.342;2023-01-01T04:22:36;1.67;;;1.52;;
16117;SDS011;8163;50.118;5.342;2023-01-01T04:25:04;4.18;;;2.13;;
16117;SDS011;8163;50.118;5.342;2023-01-01T04:27:32;4.30;;;1.90;;
16117;SDS011;8163;50.118;5.342;2023-01-01T04:29:59;3.50;;;1.75;;
16117;SDS011;8163;50.118;5.342;2023-01-01T04:32:26;4.13;;;1.58;;
16117;SDS011;8163;50.118;5.342;2023-01-01T04:34:55;5.20;;;2.10;;
16117;SDS011;8163;50.118;5.342;2023-01-01T04:37:22;3.05;;;2.15;;
16117;SDS011;8163;50.118;5.342;2023-01-01T04:39:49;3.85;;;2.08;;
16117;SDS011;8163;50.118;5.342;2023-01-01T04:42:16;4.22;;;2.05;;
16117;SDS011;8163;50.118;5.342;2023-01-01T04:44:43;8.20;;;2.08;;
16117;SDS011;8163;50.118;5.342;2023-01-01T04:47:10;2.13;;;1.73;;
16117;SDS011;8163;50.118;5.342;2023-01-01T04:49:37;3.45;;;1.98;;
16117;SDS011;8163;50.118;5.342;2023-01-01T04:52:05;6.53;;;1.80;;
16117;SDS011;8163;50.118;5.342;2023-01-01T04:54:32;4.95;;;1.95;;
16117;SDS011;8163;50.118;5.342;2023-01-01T04:56:59;7.55;;;2.72;;
16117;SDS011;8163;50.118;5.342;2023-01-01T04:59:27;5.97;;;1.70;;
16117;SDS011;8163;50.118;5.342;2023-01-01T05:01:55;4.75;;;1.80;;
16117;SDS011;8163;50.118;5.342;2023-01-01T05:04:22;2.60;;;1.77;;
16117;SDS011;8163;50.118;5.342;2023-01-01T05:06:49;2.78;;;1.80;;
16117;SDS011;8163;50.118;5.342;2023-01-01T05:09:17;4.72;;;1.85;;
16117;SDS011;8163;50.118;5.342;2023-01-01T05:11:44;4.45;;;2.10;;
16117;SDS011;8163;50.118;5.342;2023-01-01T05:14:11;4.95;;;1.98;;
16117;SDS011;8163;50.118;5.342;2023-01-01T05:16:38;7.57;;;2.40;;
16117;SDS011;8163;50.118;5.342;2023-01-01T05:19:06;5.07;;;1.65;;
16117;SDS011;8163;50.118;5.342;2023-01-01T05:21:33;6.45;;;2.35;;
16117;SDS011;8163;50.118;5.342;2023-01-01T05:24:04;6.95;;;2.15;;
16117;SDS011;8163;50.118;5.342;2023-01-01T05:26:35;3.05;;;2.03;;
16117;SDS011;8163;50.118;5.342;2023-01-01T05:29:03;2.55;;;1.58;;
16117;SDS011;8163;50.118;5.342;2023-01-01T05:31:31;6.80;;;2.53;;
16117;SDS011;8163;50.118;5.342;2023-01-01T05:34:00;10.52;;;2.20;;
16117;SDS011;8163;50.118;5.342;2023-01-01T05:36:29;3.70;;;2.08;;
16117;SDS011;8163;50.118;5.342;2023-01-01T05:38:57;3.38;;;2.25;;
16117;SDS011;8163;50.118;5.342;2023-01-01T05:41:25;4.18;;;1.88;;
16117;SDS011;8163;50.118;5.342;2023-01-01T05:43:53;2.78;;;2.20;;
16117;SDS011;8163;50.118;5.342;2023-01-01T05:46:21;4.60;;;2.45;;
16117;SDS011;8163;50.118;5.342;2023-01-01T05:48:50;3.00;;;2.03;;
16117;SDS011;8163;50.118;5.342;2023-01-01T05:51:20;8.50;;;2.00;;
16117;SDS011;8163;50.118;5.342;2023-01-01T05:53:49;5.55;;;1.80;;
16117;SDS011;8163;50.118;5.342;2023-01-01T05:56:16;5.22;;;2.85;;
16117;SDS011;8163;50.118;5.342;2023-01-01T05:58:44;4.43;;;1.92;;
16117;SDS011;8163;50.118;5.342;2023-01-01T06:01:14;2.78;;;1.75;;
16117;SDS011;8163;50.118;5.342;2023-01-01T06:03:42;4.72;;;2.00;;
16117;SDS011;8163;50.118;5.342;2023-01-01T06:06:13;8.70;;;2.33;;
16117;SDS011;8163;50.118;5.342;2023-01-01T06:08:47;6.15;;;1.77;;
16117;SDS011;8163;50.118;5.342;2023-01-01T06:11:15;5.15;;;2.58;;
16117;SDS011;8163;50.118;5.342;2023-01-01T06:13:42;3.80;;;1.80;;
16117;SDS011;8163;50.118;5.342;2023-01-01T06:16:09;4.53;;;2.40;;
16117;SDS011;8163;50.118;5.342;2023-01-01T06:18:38;3.65;;;2.08;;
16117;SDS011;8163;50.118;5.342;2023-01-01T06:21:05;4.07;;;2.47;;
16117;SDS011;8163;50.118;5.342;2023-01-01T06:23:38;4.43;;;2.28;;
16117;SDS011;8163;50.118;5.342;2023-01-01T06:26:07;2.53;;;1.90;;
16117;SDS011;8163;50.118;5.342;2023-01-01T06:28:35;6.78;;;1.98;;
16117;SDS011;8163;50.118;5.342;2023-01-01T06:31:02;4.15;;;2.05;;
16117;SDS011;8163;50.118;5.342;2023-01-01T06:33:31;5.95;;;2.55;;
16117;SDS011;8163;50.118;5.342;2023-01-01T06:36:00;8.30;;;2.40;;
16117;SDS011;8163;50.118;5.342;2023-01-01T06:38:29;6.32;;;2.53;;
16117;SDS011;8163;50.118;5.342;2023-01-01T06:40:56;4.82;;;2.40;;
16117;SDS011;8163;50.118;5.342;2023-01-01T06:43:24;6.50;;;2.25;;
16117;SDS011;8163;50.118;5.342;2023-01-01T06:46:01;5.30;;;2.00;;
16117;SDS011;8163;50.118;5.342;2023-01-01T06:48:29;6.10;;;2.42;;
16117;SDS011;8163;50.118;5.342;2023-01-01T06:51:03;6.95;;;2.72;;
16117;SDS011;8163;50.118;5.342;2023-01-01T06:53:31;4.07;;;2.38;;
16117;SDS011;8163;50.118;5.342;2023-01-01T06:55:58;5.57;;;2.05;;
16117;SDS011;8163;50.118;5.342;2023-01-01T06:58:25;9.02;;;2.72;;
16117;SDS011;8163;50.118;5.342;2023-01-01T07:00:52;4.03;;;2.33;;
16117;SDS011;8163;50.118;5.342;2023-01-01T07:03:19;6.53;;;2.42;;
16117;SDS011;8163;50.118;5.342;2023-01-01T07:05:46;3.15;;;2.17;;
16117;SDS011;8163;50.118;5.342;2023-01-01T07:08:14;7.50;;;2.22;;
16117;SDS011;8163;50.118;5.342;2023-01-01T07:10:41;13.07;;;2.85;;
16117;SDS011;8163;50.118;5.342;2023-01-01T07:13:08;6.75;;;2.88;;
16117;SDS011;8163;50.118;5.342;2023-01-01T07:15:35;6.85;;;2.35;;
16117;SDS011;8163;50.118;5.342;2023-01-01T07:18:02;5.10;;;2.28;;
16117;SDS011;8163;50.118;5.342;2023-01-01T07:20:29;3.88;;;2.83;;
16117;SDS011;8163;50.118;5.342;2023-01-01T07:22:56;7.95;;;2.97;;
16117;SDS011;8163;50.118;5.342;2023-01-01T07:25:28;5.05;;;3.38;;
16117;SDS011;8163;50.118;5.342;2023-01-01T07:27:55;7.90;;;3.00;;
16117;SDS011;8163;50.118;5.342;2023-01-01T07:30:22;6.47;;;2.83;;
16117;SDS011;8163;50.118;5.342;2023-01-01T07:32:52;6.38;;;2.20;;
16117;SDS011;8163;50.118;5.342;2023-01-01T07:35:20;5.32;;;3.40;;
16117;SDS011;8163;50.118;5.342;2023-01-01T07:37:47;3.55;;;2.20;;
16117;SDS011;8163;50.118;5.342;2023-01-01T07:40:14;4.80;;;2.80;;
16117;SDS011;8163;50.118;5.342;2023-01-01T07:42:42;3.38;;;2.28;;
16117;SDS011;8163;50.118;5.342;2023-01-01T07:45:10;4.63;;;2.40;;
16117;SDS011;8163;50.118;5.342;2023-01-01T07:47:37;4.75;;;2.67;;
16117;SDS011;8163;50.118;5.342;2023-01-01T07:50:05;4.07;;;2.22;;
16117;SDS011;8163;50.118;5.342;2023-01-01T07:52:32;6.82;;;2.40;;
16117;SDS011;8163;50.118;5.342;2023-01-01T07:54:59;5.38;;;2.50;;
16117;SDS011;8163;50.118;5.342;2023-01-01T07:57:26;10.23;;;3.00;;
16117;SDS011;8163;50.118;5.342;2023-01-01T07:59:54;4.25;;;2.88;;
16117;SDS011;8163;50.118;5.342;2023-01-01T08:02:22;5.90;;;2.75;;
16117;SDS011;8163;50.118;5.342;2023-01-01T08:04:49;3.75;;;2.33;;
16117;SDS011;8163;50.118;5.342;2023-01-01T08:07:16;7.07;;;3.55;;
16117;SDS011;8163;50.118;5.342;2023-01-01T08:09:43;4.78;;;2.30;;
16117;SDS011;8163;50.118;5.342;2023-01-01T08:12:10;5.90;;;2.33;;
16117;SDS011;8163;50.118;5.342;2023-01-01T08:14:37;4.82;;;2.58;;
16117;SDS011;8163;50.118;5.342;2023-01-01T08:17:05;3.65;;;2.70;;
16117;SDS011;8163;50.118;5.342;2023-01-01T08:19:32;7.63;;;2.97;;
16117;SDS011;8163;50.118;5.342;2023-01-01T08:21:59;11.38;;;2.72;;
16117;SDS011;8163;50.118;5.342;2023-01-01T08:24:26;10.13;;;2.90;;
16117;SDS011;8163;50.118;5.342;2023-01-01T08:26:53;4.78;;;2.67;;
16117;SDS011;8163;50.118;5.342;2023-01-01T08:29:20;6.20;;;3.08;;
16117;SDS011;8163;50.118;5.342;2023-01-01T08:31:47;4.55;;;1.88;;
16117;SDS011;8163;50.118;5.342;2023-01-01T08:34:15;6.70;;;3.22;;
16117;SDS011;8163;50.118;5.342;2023-01-01T08:36:42;6.53;;;2.67;;
16117;SDS011;8163;50.118;5.342;2023-01-01T08:39:09;7.25;;;2.72;;
16117;SDS011;8163;50.118;5.342;2023-01-01T08:41:36;3.47;;;2.08;;
16117;SDS011;8163;50.118;5.342;2023-01-01T08:44:03;2.83;;;2.40;;
16117;SDS011;8163;50.118;5.342;2023-01-01T08:46:30;3.30;;;2.03;;
16117;SDS011;8163;50.118;5.342;2023-01-01T08:48:57;8.07;;;2.70;;
16117;SDS011;8163;50.118;5.342;2023-01-01T08:51:26;3.13;;;2.00;;
16117;SDS011;8163;50.118;5.342;2023-01-01T08:53:53;3.58;;;2.58;;
16117;SDS011;8163;50.118;5.342;2023-01-01T08:56:20;8.98;;;2.70;;
16117;SDS011;8163;50.118;5.342;2023-01-01T08:58:47;5.70;;;3.30;;
16117;SDS011;8163;50.118;5.342;2023-01-01T09:01:14;5.22;;;2.78;;
16117;SDS011;8163;50.118;5.342;2023-01-01T09:03:41;10.63;;;2.70;;
16117;SDS011;8163;50.118;5.342;2023-01-01T09:06:09;7.47;;;2.75;;
16117;SDS011;8163;50.118;5.342;2023-01-01T09:08:38;5.45;;;2.67;;
16117;SDS011;8163;50.118;5.342;2023-01-01T09:11:05;3.85;;;2.17;;
16117;SDS011;8163;50.118;5.342;2023-01-01T09:13:32;6.00;;;2.47;;
16117;SDS011;8163;50.118;5.342;2023-01-01T09:15:59;7.03;;;2.53;;
16117;SDS011;8163;50.118;5.342;2023-01-01T09:18:26;5.10;;;2.90;;
16117;SDS011;8163;50.118;5.342;2023-01-01T09:20:53;8.20;;;2.75;;
16117;SDS011;8163;50.118;5.342;2023-01-01T09:23:20;7.13;;;3.03;;
16117;SDS011;8163;50.118;5.342;2023-01-01T09:25:48;4.55;;;2.40;;
16117;SDS011;8163;50.118;5.342;2023-01-01T09:28:15;4.03;;;2.70;;
16117;SDS011;8163;50.118;5.342;2023-01-01T09:30:42;8.65;;;3.08;;
16117;SDS011;8163;50.118;5.342;2023-01-01T09:33:09;8.27;;;3.22;;
16117;SDS011;8163;50.118;5.342;2023-01-01T09:35:36;3.42;;;2.53;;
16117;SDS011;8163;50.118;5.342;2023-01-01T09:38:03;5.43;;;2.80;;
16117;SDS011;8163;50.118;5.342;2023-01-01T09:40:31;6.05;;;2.50;;
16117;SDS011;8163;50.118;5.342;2023-01-01T09:43:08;8.52;;;2.50;;
16117;SDS011;8163;50.118;5.342;2023-01-01T09:45:46;10.02;;;4.05;;
16117;SDS011;8163;50.118;5.342;2023-01-01T09:48:21;4.85;;;2.60;;
16117;SDS011;8163;50.118;5.342;2023-01-01T09:50:49;11.07;;;3.50;;
16117;SDS011;8163;50.118;5.342;2023-01-01T09:53:17;4.72;;;2.22;;
16117;SDS011;8163;50.118;5.342;2023-01-01T09:55:54;7.65;;;3.20;;
16117;SDS011;8163;50.118;5.342;2023-01-01T09:58:24;8.00;;;2.85;;
16117;SDS011;8163;50.118;5.342;2023-01-01T10:00:56;8.68;;;2.60;;
16117;SDS011;8163;50.118;5.342;2023-01-01T10:03:31;5.07;;;2.45;;
16117;SDS011;8163;50.118;5.342;2023-01-01T10:06:08;5.95;;;3.80;;
16117;SDS011;8163;50.118;5.342;2023-01-01T10:08:43;5.55;;;2.40;;
16117;SDS011;8163;50.118;5.342;2023-01-01T10:11:23;7.05;;;2.63;;
16117;SDS011;8163;50.118;5.342;2023-01-01T10:13:58;5.13;;;2.17;;
16117;SDS011;8163;50.118;5.342;2023-01-01T10:16:29;5.68;;;2.22;;
16117;SDS011;8163;50.118;5.342;2023-01-01T10:19:01;3.25;;;2.28;;
16117;SDS011;8163;50.118;5.342;2023-01-01T10:21:40;4.68;;;2.10;;
16117;SDS011;8163;50.118;5.342;2023-01-01T10:24:13;5.22;;;2.83;;
16117;SDS011;8163;50.118;5.342;2023-01-01T10:27:02;3.25;;;2.03;;
16117;SDS011;8163;50.118;5.342;2023-01-01T10:29:34;2.80;;;2.08;;
16117;SDS011;8163;50.118;5.342;2023-01-01T10:32:13;6.88;;;2.08;;
16117;SDS011;8163;50.118;5.342;2023-01-01T10:34:47;2.97;;;1.92;;
16117;SDS011;8163;50.118;5.342;2023-01-01T10:37:15;6.80;;;2.25;;
16117;SDS011;8163;50.118;5.342;2023-01-01T10:39:43;5.18;;;1.92;;
16117;SDS011;8163;50.118;5.342;2023-01-01T10:42:12;5.18;;;2.38;;
16117;SDS011;8163;50.118;5.342;2023-01-01T10:44:42;4.18;;;1.73;;
16117;SDS011;8163;50.118;5.342;2023-01-01T10:47:21;4.32;;;2.17;;
16117;SDS011;8163;50.118;5.342;2023-01-01T10:49:53;6.07;;;2.10;;
16117;SDS011;8163;50.118;5.342;2023-01-01T10:52:24;3.75;;;2.17;;
16117;SDS011;8163;50.118;5.342;2023-01-01T10:54:52;3.97;;;2.10;;
16117;SDS011;8163;50.118;5.342;2023-01-01T10:57:27;9.32;;;2.30;;
16117;SDS011;8163;50.118;5.342;2023-01-01T11:00:11;3.95;;;2.20;;
16117;SDS011;8163;50.118;5.342;2023-01-01T11:02:47;6.05;;;2.50;;
16117;SDS011;8163;50.118;5.342;2023-01-01T11:05:31;8.50;;;2.60;;
16117;SDS011;8163;50.118;5.342;2023-01-01T11:07:59;7.13;;;2.10;;
16117;SDS011;8163;50.118;5.342;2023-01-01T11:10:27;5.13;;;1.95;;
16117;SDS011;8163;50.118;5.342;2023-01-01T11:12:55;4.60;;;1.77;;
16117;SDS011;8163;50.118;5.342;2023-01-01T11:15:29;2.70;;;1.90;;
16117;SDS011;8163;50.118;5.342;2023-01-01T11:18:03;3.60;;;1.70;;
16117;SDS011;8163;50.118;5.342;2023-01-01T11:20:32;5.60;;;2.17;;
16117;SDS011;8163;50.118;5.342;2023-01-01T11:22:59;4.60;;;2.13;;
16117;SDS011;8163;50.118;5.342;2023-01-01T11:25:55;5.13;;;2.08;;
16117;SDS011;8163;50.118;5.342;2023-01-01T11:28:24;8.10;;;3.17;;
16117;SDS011;8163;50.118;5.342;2023-01-01T11:31:10;4.07;;;1.90;;
16117;SDS011;8163;50.118;5.342;2023-01-01T11:33:42;7.63;;;2.60;;
16117;SDS011;8163;50.118;5.342;2023-01-01T11:36:11;4.97;;;2.00;;
16117;SDS011;8163;50.118;5.342;2023-01-01T11:38:46;6.68;;;2.00;;
16117;SDS011;8163;50.118;5.342;2023-01-01T11:41:15;2.92;;;1.98;;
16117;SDS011;8163;50.118;5.342;2023-01-01T11:43:42;1.92;;;1.65;;
16117;SDS011;8163;50.118;5.342;2023-01-01T11:46:15;6.80;;;2.00;;
16117;SDS011;8163;50.118;5.342;2023-01-01T11:48:48;3.60;;;1.60;;
16117;SDS011;8163;50.118;5.342;2023-01-01T11:51:27;2.63;;;1.65;;
16117;SDS011;8163;50.118;5.342;2023-01-01T11:54:19;2.88;;;1.73;;
16117;SDS011;8163;50.118;5.342;2023-01-01T11:56:53;3.10;;;1.50;;
16117;SDS011;8163;50.118;5.342;2023-01-01T11:59:24;2.85;;;1.50;;
16117;SDS011;8163;50.118;5.342;2023-01-01T12:01:57;6.78;;;2.00;;
16117;SDS011;8163;50.118;5.342;2023-01-01T12:04:28;4.05;;;1.67;;
16117;SDS011;8163;50.118;5.342;2023-01-01T12:07:01;4.05;;;1.63;;
16117;SDS011;8163;50.118;5.342;2023-01-01T12:09:34;2.88;;;1.80;;
16117;SDS011;8163;50.118;5.342;2023-01-01T12:12:07;5.80;;;2.15;;
16117;SDS011;8163;50.118;5.342;2023-01-01T12:14:39;2.92;;;1.70;;
16117;SDS011;8163;50.118;5.342;2023-01-01T12:17:16;3.05;;;1.70;;
16117;SDS011;8163;50.118;5.342;2023-01-01T12:19:48;4.47;;;1.60;;
16117;SDS011;8163;50.118;5.342;2023-01-01T12:22:21;4.60;;;1.95;;
16117;SDS011;8163;50.118;5.342;2023-01-01T12:24:49;7.70;;;2.10;;
16117;SDS011;8163;50.118;5.342;2023-01-01T12:27:18;3.22;;;1.92;;
16117;SDS011;8163;50.118;5.342;2023-01-01T12:30:07;7.05;;;1.98;;
16117;SDS011;8163;50.118;5.342;2023-01-01T12:32:49;5.63;;;1.73;;
16117;SDS011;8163;50.118;5.342;2023-01-01T12:35:35;3.83;;;1.42;;
16117;SDS011;8163;50.118;5.342;2023-01-01T12:38:13;3.42;;;1.70;;
16117;SDS011;8163;50.118;5.342;2023-01-01T12:40:56;6.18;;;1.90;;
16117;SDS011;8163;50.118;5.342;2023-01-01T12:43:34;4.72;;;2.22;;
16117;SDS011;8163;50.118;5.342;2023-01-01T12:46:17;4.45;;;1.38;;
16117;SDS011;8163;50.118;5.342;2023-01-01T12:49:09;4.03;;;2.13;;
16117;SDS011;8163;50.118;5.342;2023-01-01T12:51:49;3.92;;;2.00;;
16117;SDS011;8163;50.118;5.342;2023-01-01T12:54:55;3.53;;;1.58;;
16117;SDS011;8163;50.118;5.342;2023-01-01T12:57:48;2.83;;;1.75;;
16117;SDS011;8163;50.118;5.342;2023-01-01T13:00:19;3.28;;;1.60;;
16117;SDS011;8163;50.118;5.342;2023-01-01T13:02:47;5.18;;;1.67;;
16117;SDS011;8163;50.118;5.342;2023-01-01T13:05:19;3.97;;;2.20;;
16117;SDS011;8163;50.118;5.342;2023-01-01T13:07:49;2.85;;;1.45;;
16117;SDS011;8163;50.118;5.342;2023-01-01T13:10:22;5.35;;;2.40;;
16117;SDS011;8163;50.118;5.342;2023-01-01T13:12:52;3.83;;;1.77;;
16117;SDS011;8163;50.118;5.342;2023-01-01T13:18:22;3.20;;;1.70;;
16117;SDS011;8163;50.118;5.342;2023-01-01T13:20:58;3.38;;;1.67;;
16117;SDS011;8163;50.118;5.342;2023-01-01T13:23:49;4.57;;;2.58;;
16117;SDS011;8163;50.118;5.342;2023-01-01T13:26:36;3.20;;;1.70;;
16117;SDS011;8163;50.118;5.342;2023-01-01T13:34:57;3.53;;;2.00;;
16117;SDS011;8163;50.118;5.342;2023-01-01T13:37:29;2.95;;;2.00;;
16117;SDS011;8163;50.118;5.342;2023-01-01T13:40:28;4.38;;;2.30;;
16117;SDS011;8163;50.118;5.342;2023-01-01T13:43:26;2.92;;;1.33;;
16117;SDS011;8163;50.118;5.342;2023-01-01T13:45:55;2.53;;;1.88;;
16117;SDS011;8163;50.118;5.342;2023-01-01T13:48:33;2.20;;;1.70;;
16117;SDS011;8163;50.118;5.342;2023-01-01T14:35:52;6.93;;;2.60;;
16117;SDS011;8163;50.118;5.342;2023-01-01T14:38:23;5.38;;;1.60;;
16117;SDS011;8163;50.118;5.342;2023-01-01T14:40:58;2.70;;;2.42;;
16117;SDS011;8163;50.118;5.342;2023-01-01T14:43:28;5.03;;;2.30;;
16117;SDS011;8163;50.118;5.342;2023-01-01T14:45:55;3.40;;;2.20;;
16117;SDS011;8163;50.118;5.342;2023-01-01T14:48:22;5.40;;;2.42;;
16117;SDS011;8163;50.118;5.342;2023-01-01T14:50:51;4.82;;;2.50;;
16117;SDS011;8163;50.118;5.342;2023-01-01T14:53:19;2.75;;;2.33;;
16117;SDS011;8163;50.118;5.342;2023-01-01T14:55:50;2.97;;;2.10;;
16117;SDS011;8163;50.118;5.342;2023-01-01T14:58:18;4.90;;;2.33;;
16117;SDS011;8163;50.118;5.342;2023-01-01T15:00:47;5.43;;;2.58;;
16117;SDS011;8163;50.118;5.342;2023-01-01T15:03:15;2.80;;;2.47;;
16117;SDS011;8163;50.118;5.342;2023-01-01T15:05:44;8.75;;;3.28;;
16117;SDS011;8163;50.118;5.342;2023-01-01T15:08:23;8.88;;;2.95;;
16117;SDS011;8163;50.118;5.342;2023-01-01T15:10:51;4.38;;;2.58;;
16117;SDS011;8163;50.118;5.342;2023-01-01T15:13:20;3.65;;;2.65;;
16117;SDS011;8163;50.118;5.342;2023-01-01T15:15:49;4.40;;;2.50;;
16117;SDS011;8163;50.118;5.342;2023-01-01T15:18:36;6.97;;;2.72;;
16117;SDS011;8163;50.118;5.342;2023-01-01T15:21:06;4.97;;;2.55;;
16117;SDS011;8163;50.118;5.342;2023-01-01T15:23:43;4.10;;;2.40;;
16117;SDS011;8163;50.118;5.342;2023-01-01T15:26:19;2.47;;;2.25;;
16117;SDS011;8163;50.118;5.342;2023-01-01T15:28:53;2.67;;;2.28;;
16117;SDS011;8163;50.118;5.342;2023-01-01T15:31:22;3.40;;;2.55;;
16117;SDS011;8163;50.118;5.342;2023-01-01T15:33:58;4.88;;;3.15;;
16117;SDS011;8163;50.118;5.342;2023-01-01T15:36:25;6.20;;;3.10;;
16117;SDS011;8163;50.118;5.342;2023-01-01T15:38:54;7.75;;;4.03;;
16117;SDS011;8163;50.118;5.342;2023-01-01T15:41:23;5.90;;;3.53;;
16117;SDS011;8163;50.118;5.342;2023-01-01T15:44:04;6.97;;;3.53;;
16117;SDS011;8163;50.118;5.342;2023-01-01T15:46:32;4.88;;;3.28;;
16117;SDS011;8163;50.118;5.342;2023-01-01T15:48:59;6.90;;;3.80;;
16117;SDS011;8163;50.118;5.342;2023-01-01T15:51:29;8.73;;;3.72;;
16117;SDS011;8163;50.118;5.342;2023-01-01T15:53:58;10.40;;;3.72;;
16117;SDS011;8163;50.118;5.342;2023-01-01T15:56:29;8.68;;;3.40;;
16117;SDS011;8163;50.118;5.342;2023-01-01T15:58:59;8.82;;;3.63;;
16117;SDS011;8163;50.118;5.342;2023-01-01T16:01:28;8.20;;;4.07;;
16117;SDS011;8163;50.118;5.342;2023-01-01T16:04:00;12.18;;;4.35;;
16117;SDS011;8163;50.118;5.342;2023-01-01T16:06:33;7.93;;;3.50;;
16117;SDS011;8163;50.118;5.342;2023-01-01T16:09:11;6.32;;;3.40;;
16117;SDS011;8163;50.118;5.342;2023-01-01T16:11:38;8.88;;;4.32;;
16117;SDS011;8163;50.118;5.342;2023-01-01T16:14:05;8.95;;;4.32;;
16117;SDS011;8163;50.118;5.342;2023-01-01T16:16:33;4.60;;;3.10;;
16117;SDS011;8163;50.118;5.342;2023-01-01T16:19:02;6.82;;;4.38;;